www.kiriwi.de
Wetterdaten: aktuell Freitag, 04.09.2026 04:29
Datum Zeit Temperatur Temp.Boden Luftfeuchte Luftdruck Regen Wind Richtung Richtung Sonnenschein UV Index Solar Windchill Windboen
04.09.2026 04:29 19,7 °C 18,3 °C 83 % 1012,5 hPa 0,0 l/m² 9,0 km/h (2 Bft) S-SW 213 ° 0 min 0,0 UV-I 0 W/m² 18,7 °C 20,2 km/h (4 Bft)
04.09.2026 03:30 19,0 °C 18,4 °C 82 % 1013,2 hPa 0,0 l/m² 7,9 km/h (2 Bft) S-SW 199 ° 0 min 0,0 UV-I 0 W/m² 18,3 °C 15,5 km/h (3 Bft)
04.09.2026 02:32 19,2 °C 18,3 °C 79 % 1013,8 hPa 0,0 l/m² 7,2 km/h (2 Bft) SW 214 ° 0 min 0,0 UV-I 0 W/m² 18,9 °C 11,5 km/h (2 Bft)
04.09.2026 01:34 19,6 °C 18,3 °C 76 % 1014,6 hPa 0,0 l/m² 9,0 km/h (2 Bft) S-SW 210 ° 0 min 0,0 UV-I 0 W/m² 18,6 °C 25,6 km/h (4 Bft)
04.09.2026 00:35 19,5 °C 18,6 °C 75 % 1014,8 hPa 0,0 l/m² 7,9 km/h (2 Bft) S-SW 193 ° 0 min 0,0 UV-I 0 W/m² 18,9 °C 15,5 km/h (3 Bft)
03.09.2026 23:37 18,9 °C 18,5 °C 82 % 1015,0 hPa 0,0 l/m² 2,2 km/h (1 Bft) S 188 ° 0 min 0,0 UV-I 0 W/m² 18,9 °C 7,2 km/h (2 Bft)
03.09.2026 22:38 19,3 °C 18,3 °C 80 % 1015,3 hPa 0,0 l/m² 7,2 km/h (2 Bft) W 276 ° 0 min 0,0 UV-I 0 W/m² 19,0 °C 7,2 km/h (2 Bft)
03.09.2026 21:40 19,8 °C 18,5 °C 80 % 1014,9 hPa 0,0 l/m² 2,5 km/h (1 Bft) W-SW 240 ° 0 min 0,0 UV-I 0 W/m² 19,8 °C 6,5 km/h (2 Bft)
03.09.2026 20:41 20,0 °C 18,1 °C 82 % 1015,3 hPa 0,2 l/m² 4,0 km/h (1 Bft) W-SW 253 ° 0 min 0,0 UV-I 0 W/m² 20,0 °C 5,8 km/h (2 Bft)
03.09.2026 19:43 20,4 °C 18,1 °C 81 % 1014,6 hPa 0,3 l/m² 9,7 km/h (2 Bft) W-NW 287 ° 0 min 0,0 UV-I 4 W/m² 19,2 °C 10,4 km/h (2 Bft)
03.09.2026 18:44 21,4 °C 18,0 °C 73 % 1014,4 hPa 0,0 l/m² 3,2 km/h (1 Bft) S 186 ° 4 min 0,0 UV-I 39 W/m² 21,4 °C 20,5 km/h (4 Bft)
03.09.2026 17:46 21,6 °C 18,3 °C 70 % 1014,3 hPa 0,0 l/m² 13,0 km/h (3 Bft) SW 218 ° 16 min 2,0 UV-I 322 W/m² 19,6 °C 27,7 km/h (4 Bft)
03.09.2026 16:47 22,6 °C 18,1 °C 65 % 1014,3 hPa 0,0 l/m² 6,8 km/h (2 Bft) W-SW 249 ° 54 min 4,0 UV-I 455 W/m² 22,5 °C 19,1 km/h (3 Bft)
03.09.2026 15:49 21,6 °C 18,1 °C 69 % 1014,3 hPa 0,0 l/m² 12,2 km/h (2 Bft) SW 217 ° 23 min 2,0 UV-I 261 W/m² 19,8 °C 25,2 km/h (4 Bft)
03.09.2026 14:50 19,7 °C 17,9 °C 77 % 1015,0 hPa 0,0 l/m² 29,5 km/h (5 Bft) SW 214 ° 2 min 2,0 UV-I 222 W/m² 14,4 °C 30,6 km/h (5 Bft)
03.09.2026 13:52 19,8 °C 18,0 °C 74 % 1014,5 hPa 0,0 l/m² 6,1 km/h (2 Bft) W-SW 244 ° 2 min 2,0 UV-I 318 W/m² 19,8 °C 29,5 km/h (5 Bft)
03.09.2026 12:53 20,3 °C 17,9 °C 69 % 1014,3 hPa 0,0 l/m² 13,3 km/h (3 Bft) S-SW 206 ° 2 min 2,0 UV-I 238 W/m² 18,0 °C 23,8 km/h (4 Bft)
03.09.2026 11:55 19,8 °C 17,9 °C 68 % 1014,8 hPa 0,0 l/m² 20,5 km/h (4 Bft) SW 219 ° 6 min 3,0 UV-I 387 W/m² 15,9 °C 25,9 km/h (4 Bft)
03.09.2026 10:56 19,7 °C 18,0 °C 67 % 1015,0 hPa 0,0 l/m² 20,2 km/h (4 Bft) S-SW 213 ° 0 min 2,0 UV-I 252 W/m² 15,8 °C 27,7 km/h (4 Bft)
03.09.2026 09:58 19,2 °C 17,8 °C 67 % 1014,8 hPa 0,0 l/m² 23,8 km/h (4 Bft) SW 221 ° 0 min 1,0 UV-I 140 W/m² 14,5 °C 27,7 km/h (4 Bft)
03.09.2026 08:59 17,8 °C 18,2 °C 73 % 1015,4 hPa 0,0 l/m² 8,3 km/h (2 Bft) S-SW 206 ° 0 min 1,0 UV-I 127 W/m² 16,9 °C 17,6 km/h (3 Bft)
03.09.2026 08:01 17,4 °C 18,0 °C 73 % 1015,7 hPa 0,0 l/m² 18,4 km/h (3 Bft) S-SW 203 ° 0 min 0,0 UV-I 19 W/m² 13,2 °C 20,2 km/h (4 Bft)
03.09.2026 07:02 16,6 °C 18,0 °C 78 % 1015,9 hPa 0,0 l/m² 7,2 km/h (2 Bft) S 185 ° 0 min 0,0 UV-I 17 W/m² 16,2 °C 18,4 km/h (3 Bft)
03.09.2026 06:04 16,5 °C 18,2 °C 78 % 1016,6 hPa 0,0 l/m² 4,7 km/h (1 Bft) S 176 ° 0 min 0,0 UV-I 0 W/m² 16,5 °C 20,2 km/h (4 Bft)
03.09.2026 05:05 17,8 °C 18,1 °C 70 % 1016,7 hPa 0,0 l/m² 13,3 km/h (3 Bft) S 186 ° 0 min 0,0 UV-I 0 W/m² 15,1 °C 18,0 km/h (3 Bft)
03.09.2026 05:01 17,9 °C 18,1 °C 70 % 1016,8 hPa 0,0 l/m² 9,4 km/h (2 Bft) S 179 ° 0 min 0,0 UV-I 0 W/m² 16,6 °C 15,8 km/h (3 Bft)
_ Min-Zeit 06:30 11:59 16:45 04:19 - 19:35 - - - - - 06:10 23:26
Minimum _ 16,1 °C 17,6 °C 65 % 1012,5 hPa - 0,0 km/h (0 Bft) - - - - - 11,3 °C 3,2 km/h (1 Bft)
_ Max-Zeit 16:59 03:53 21:05 05:42 19:59 14:00 - - 15:27 15:02 15:02 16:47 13:36
Maximum _ 22,7 °C 18,7 °C 83 % 1017,1 hPa 0,2 l/m² 30,2 km/h
SW (5 Bft)
- - 3 min 7,0 UV-I 806 W/m² 22,5 °C 41,4 km/h
S-SW (6 Bft)
Durchschnitt _ 19,4 °C 18,1 °C 74 % 1015,0 hPa #0,5 l/m² 9,7 km/h (2 Bft) S-SW - #0 min. 0,0 UV-I 0 W/m² 18,1 °C 18,4 km/h (3 Bft)
www.kiriwi.de